Flat River, Missouri
Current Conditions -  °F | °C
As of 6:15 PM on Wednesday 28 Jan 2015 (Local Time) from KFAM Reporting Station
Clear Clear  
Wind Chill:   Ceiling: Unl
Heat Index:   Visibility: 10mi
Dew Point:   Wind: 16mph
Humidity: 66%   Direction: 180°S
Pressure: 30.03"   Gusts: 22mph
Location:  37.8688°N, 90.5931°W
Report Text: KFAM 290015Z AUTO 18014G19KT 10SM CLR 06/00 A3003 RMK AO1
Loading
Personal Weather Stations






























Interactive Weather Map New forecast layout! Learn more

10-Day Weather Forecast

Advertisements
Track Severe Weather on mobile